UKLR/RWN METAR and TAF weather

Enter ICAO airport designator
Station Type Date Time Source
UKLR METAR 2019/08/21 04:00 UTC NOAA

UKLR 210400Z 15002MPS CAVOK 18/14 Q1021 NOSIG


Station Type Date Time Source
UKLR Decoded METAR 2019/08/21 04:00 UTC NOAA

Station name not available
Aug 21, 2019 - 12:00 AM EDT / 2019.08.21 0400 UTC
Wind: from the SSE (150 degrees) at 4 MPH (4 KT):0
Visibility: greater than 7 mile(s):0
Temperature: 64 F (18 C)
Dew Point: 57 F (14 C)
Relative Humidity: 77%
Pressure (altimeter): 30.15 in. Hg (1021 hPa)
ob: UKLR 210400Z 15002MPS CAVOK 18/14 Q1021 NOSIG
cycle: 4

Station Type Date Time Source
UKLR TAF 2019/08/16 12:15 UTC NOAA

TAF TAF UKLR 161105Z 1612/1821 35003MPS 9999 BKN020 SCT023CB

Example: see airport list